createdAt,value
2017-10-31T00:01:44.060Z,57.18
2017-10-31T00:04:10.265Z,57.21
2017-10-31T00:06:36.485Z,57.24
2017-10-31T00:09:03.043Z,57.18
2017-10-31T00:11:29.199Z,57.19
2017-10-31T00:13:55.450Z,57.19
2017-10-31T00:16:21.672Z,57.15
2017-10-31T00:18:47.868Z,57.12
2017-10-31T00:21:14.118Z,57.14
2017-10-31T00:23:40.665Z,57.12
2017-10-31T00:26:06.857Z,57.17
2017-10-31T00:28:33.286Z,57.18
2017-10-31T00:30:59.533Z,57.20
2017-10-31T00:33:25.728Z,57.14
2017-10-31T00:35:51.998Z,57.20
2017-10-31T00:38:18.239Z,57.15
2017-10-31T00:40:45.594Z,57.20
2017-10-31T00:43:12.026Z,57.20
2017-10-31T00:45:38.279Z,57.21
2017-10-31T00:48:04.481Z,57.24
2017-10-31T00:50:30.732Z,57.23
2017-10-31T00:52:57.024Z,57.17
2017-10-31T00:55:23.229Z,57.19
2017-10-31T00:57:49.429Z,57.15
2017-10-31T01:00:15.654Z,57.10
2017-10-31T01:02:42.092Z,57.02
2017-10-31T01:05:08.631Z,57.02
2017-10-31T01:07:35.065Z,57.07
2017-10-31T01:10:01.262Z,57.11
2017-10-31T01:12:27.852Z,57.09
2017-10-31T01:14:54.060Z,57.05
2017-10-31T01:17:20.263Z,57.08
2017-10-31T01:19:46.891Z,57.07
2017-10-31T01:22:13.117Z,57.08
2017-10-31T01:24:39.309Z,57.04
2017-10-31T01:27:05.564Z,56.99
2017-10-31T01:29:32.018Z,57.05
2017-10-31T01:31:58.454Z,57.03
2017-10-31T01:34:25.059Z,56.99
2017-10-31T01:36:51.246Z,57.11
2017-10-31T01:39:17.451Z,57.01
2017-10-31T01:41:44.018Z,56.98
2017-10-31T01:44:10.266Z,56.97
2017-10-31T01:46:36.450Z,56.98
2017-10-31T01:49:03.283Z,57.02
2017-10-31T01:51:29.507Z,57.00
2017-10-31T01:53:55.961Z,56.94
2017-10-31T01:56:22.283Z,56.90
2017-10-31T01:58:48.487Z,56.92
2017-10-31T02:01:14.712Z,56.99
2017-10-31T02:03:40.972Z,57.00
2017-10-31T02:06:07.332Z,56.99
2017-10-31T02:08:33.758Z,56.99
2017-10-31T02:11:00.274Z,56.95
2017-10-31T02:13:26.476Z,56.98
2017-10-31T02:15:52.676Z,57.03
2017-10-31T02:18:19.269Z,57.05
2017-10-31T02:20:45.493Z,57.02
2017-10-31T02:23:11.754Z,57.03
2017-10-31T02:25:38.246Z,57.05
2017-10-31T02:28:04.458Z,57.10
2017-10-31T02:30:30.658Z,57.13
2017-10-31T02:32:57.267Z,57.20
2017-10-31T02:35:23.476Z,57.18
2017-10-31T02:37:49.722Z,57.15
2017-10-31T02:40:15.986Z,57.04
2017-10-31T02:42:42.192Z,57.04
2017-10-31T02:45:08.414Z,57.02
2017-10-31T02:47:34.720Z,57.02
2017-10-31T02:50:01.171Z,57.03
2017-10-31T02:52:27.437Z,57.01
2017-10-31T02:54:53.631Z,57.02
2017-10-31T02:57:19.855Z,56.98
2017-10-31T02:59:46.125Z,56.97
2017-10-31T03:02:12.330Z,57.01
2017-10-31T03:04:38.790Z,57.00
2017-10-31T03:07:05.525Z,56.98
2017-10-31T03:09:31.726Z,57.06
2017-10-31T03:11:57.918Z,57.06
2017-10-31T03:14:24.842Z,57.00
2017-10-31T03:16:51.078Z,57.02
2017-10-31T03:19:17.310Z,57.02
2017-10-31T03:21:43.736Z,57.02
2017-10-31T03:24:09.971Z,57.02
2017-10-31T03:26:36.183Z,57.01
2017-10-31T03:29:02.452Z,56.97
2017-10-31T03:31:28.684Z,56.94
2017-10-31T03:33:54.897Z,56.98
2017-10-31T03:36:21.168Z,57.00
2017-10-31T03:38:47.673Z,57.07
2017-10-31T03:41:13.894Z,57.01
2017-10-31T03:43:40.579Z,57.01
2017-10-31T03:46:06.780Z,56.96
2017-10-31T03:48:33.002Z,56.97
2017-10-31T03:50:59.289Z,56.99
2017-10-31T03:53:25.502Z,57.05
2017-10-31T03:55:51.718Z,57.10
2017-10-31T03:58:18.454Z,57.08
2017-10-31T04:00:44.942Z,57.00
2017-10-31T04:03:11.147Z,57.02
2017-10-31T04:05:37.511Z,57.03
2017-10-31T04:08:03.715Z,57.02
2017-10-31T04:10:29.939Z,56.99
2017-10-31T04:12:56.183Z,56.98
2017-10-31T04:15:22.386Z,56.96
2017-10-31T04:17:48.836Z,56.92
2017-10-31T04:20:15.095Z,56.94
2017-10-31T04:22:41.302Z,56.92
2017-10-31T04:25:07.544Z,56.89
2017-10-31T04:27:33.803Z,56.90
2017-10-31T04:30:00.000Z,56.89
2017-10-31T04:32:26.181Z,56.93
2017-10-31T04:34:52.431Z,56.97
2017-10-31T04:37:18.669Z,57.05
2017-10-31T04:39:44.865Z,57.03
2017-10-31T04:42:11.083Z,57.05
2017-10-31T04:44:37.342Z,57.00
2017-10-31T04:47:03.881Z,56.95
2017-10-31T04:49:30.310Z,56.97
2017-10-31T04:51:56.560Z,57.01
2017-10-31T04:54:23.093Z,57.02
2017-10-31T04:56:49.336Z,57.04
2017-10-31T04:59:15.620Z,57.05
2017-10-31T05:01:41.838Z,57.08
2017-10-31T05:04:08.288Z,57.04
2017-10-31T05:06:34.751Z,56.99
2017-10-31T05:09:01.196Z,56.93
2017-10-31T05:11:27.469Z,56.96
2017-10-31T05:13:53.943Z,56.93
2017-10-31T05:16:20.175Z,56.91
2017-10-31T05:18:46.620Z,56.91
2017-10-31T05:21:12.979Z,56.83
2017-10-31T05:23:39.182Z,56.83
2017-10-31T05:26:05.560Z,56.78
2017-10-31T05:28:31.899Z,56.78
2017-10-31T05:30:58.097Z,56.85
2017-10-31T05:33:24.301Z,56.86
2017-10-31T05:35:50.520Z,56.83
2017-10-31T05:38:17.025Z,56.86
2017-10-31T05:40:43.239Z,56.92
2017-10-31T05:43:09.443Z,56.97
2017-10-31T05:45:35.789Z,56.96
2017-10-31T05:48:02.016Z,56.95
2017-10-31T05:50:28.455Z,56.95
2017-10-31T05:52:55.179Z,57.04
2017-10-31T05:55:21.370Z,57.10
2017-10-31T05:57:47.562Z,57.08
2017-10-31T06:00:14.007Z,57.07
2017-10-31T06:02:40.465Z,57.07
2017-10-31T06:05:06.653Z,57.02
2017-10-31T06:07:33.148Z,57.02
2017-10-31T06:09:59.386Z,56.99
2017-10-31T06:12:25.819Z,56.93
2017-10-31T06:14:52.388Z,56.93
2017-10-31T06:17:18.590Z,56.94
2017-10-31T06:19:44.777Z,56.96
2017-10-31T06:22:17.447Z,56.97
2017-10-31T06:24:49.712Z,56.91
2017-10-31T06:27:22.141Z,56.85
2017-10-31T06:29:54.428Z,56.78
2017-10-31T06:32:20.635Z,56.77
2017-10-31T06:34:47.454Z,56.71
2017-10-31T06:37:13.664Z,56.69
2017-10-31T06:39:40.115Z,56.76
2017-10-31T06:42:07.025Z,56.73
2017-10-31T06:44:33.245Z,56.75
2017-10-31T06:46:59.436Z,56.72
2017-10-31T06:49:25.763Z,56.68
2017-10-31T06:51:52.182Z,56.70
2017-10-31T06:54:18.680Z,56.68
2017-10-31T06:56:45.170Z,56.67
2017-10-31T06:59:11.371Z,56.65
2017-10-31T07:01:37.574Z,56.53
2017-10-31T07:04:04.125Z,56.53
2017-10-31T07:06:30.297Z,56.60
2017-10-31T07:08:56.815Z,56.62
2017-10-31T07:11:23.455Z,56.64
2017-10-31T07:13:49.642Z,56.64
2017-10-31T07:16:15.847Z,56.55
2017-10-31T07:18:42.071Z,56.55
2017-10-31T07:21:08.480Z,56.55
2017-10-31T07:23:35.041Z,56.56
2017-10-31T07:26:01.238Z,56.59
2017-10-31T07:28:27.506Z,56.56
2017-10-31T07:30:53.742Z,56.48
2017-10-31T07:33:20.278Z,56.45
2017-10-31T07:35:46.790Z,56.37
2017-10-31T07:38:13.014Z,56.34
2017-10-31T07:40:39.253Z,56.35
2017-10-31T07:43:05.470Z,56.30
2017-10-31T07:45:31.657Z,56.31
2017-10-31T07:47:58.206Z,56.27
2017-10-31T07:50:24.406Z,56.29
2017-10-31T07:52:50.608Z,56.31
2017-10-31T07:55:16.875Z,56.34
2017-10-31T07:57:43.076Z,56.35
2017-10-31T08:00:09.287Z,56.34
2017-10-31T08:02:35.534Z,56.34
2017-10-31T08:05:01.730Z,56.29
2017-10-31T08:07:27.943Z,56.20
2017-10-31T08:09:54.213Z,56.17
2017-10-31T08:12:20.421Z,56.16
2017-10-31T08:14:46.623Z,56.08
2017-10-31T08:17:12.951Z,56.03
2017-10-31T08:19:39.162Z,56.01
2017-10-31T08:22:05.356Z,56.02
2017-10-31T08:24:31.870Z,55.99
2017-10-31T08:26:58.323Z,55.95
2017-10-31T08:29:24.513Z,55.92
2017-10-31T08:31:51.129Z,55.96
2017-10-31T08:34:17.319Z,55.92
2017-10-31T08:36:43.955Z,55.80
2017-10-31T08:39:10.283Z,55.78
2017-10-31T08:41:36.475Z,55.77
2017-10-31T08:44:02.674Z,55.73
2017-10-31T08:46:29.175Z,55.66
2017-10-31T08:48:55.375Z,55.55
2017-10-31T08:51:21.824Z,55.54
2017-10-31T08:53:48.087Z,55.52
2017-10-31T08:56:14.299Z,55.48
2017-10-31T08:58:40.730Z,55.54
2017-10-31T09:01:06.969Z,55.58
2017-10-31T09:03:33.179Z,55.65
2017-10-31T09:05:59.387Z,55.63
2017-10-31T09:08:26.326Z,55.65
2017-10-31T09:10:52.783Z,55.60
2017-10-31T09:13:18.984Z,55.59
2017-10-31T09:15:45.587Z,55.57
2017-10-31T09:18:11.780Z,55.58
2017-10-31T09:20:37.986Z,55.51
2017-10-31T09:23:04.320Z,55.40
2017-10-31T09:25:30.525Z,55.36
2017-10-31T09:27:56.716Z,55.34
2017-10-31T09:30:23.035Z,55.30
2017-10-31T09:32:49.223Z,55.29
2017-10-31T09:35:15.829Z,55.29
2017-10-31T09:37:42.031Z,55.33
2017-10-31T09:40:08.236Z,55.29
2017-10-31T09:42:34.782Z,55.29
2017-10-31T09:45:00.969Z,55.31
2017-10-31T09:47:27.160Z,55.31
2017-10-31T09:49:54.129Z,55.39
2017-10-31T09:52:20.335Z,55.50
2017-10-31T09:54:46.772Z,55.56
2017-10-31T09:57:13.420Z,55.53
2017-10-31T09:59:39.903Z,55.44
2017-10-31T10:02:06.090Z,55.41
2017-10-31T10:04:32.819Z,55.42
2017-10-31T10:06:59.029Z,55.44
2017-10-31T10:09:25.219Z,55.37
2017-10-31T10:11:51.833Z,55.29
2017-10-31T10:14:18.013Z,55.27
2017-10-31T10:16:44.202Z,55.26
2017-10-31T10:19:10.449Z,55.25
2017-10-31T10:21:36.982Z,55.17
2017-10-31T10:24:03.184Z,55.18
2017-10-31T10:26:29.794Z,55.17
2017-10-31T10:28:55.998Z,55.12
2017-10-31T10:31:22.386Z,55.10
2017-10-31T10:33:48.991Z,55.06
2017-10-31T10:36:15.181Z,54.99
2017-10-31T10:38:41.706Z,54.94
2017-10-31T10:41:08.196Z,54.88
2017-10-31T10:43:34.631Z,54.80
2017-10-31T10:46:01.106Z,54.79
2017-10-31T10:48:27.348Z,54.76
2017-10-31T10:50:53.544Z,54.67
2017-10-31T10:53:19.746Z,54.58
2017-10-31T10:55:46.011Z,54.56
2017-10-31T10:58:12.206Z,54.51
2017-10-31T11:00:42.452Z,54.45
2017-10-31T11:03:09.102Z,54.45
2017-10-31T11:05:35.336Z,54.46
2017-10-31T11:08:01.928Z,54.47
2017-10-31T11:10:28.162Z,54.47
2017-10-31T11:12:54.352Z,54.58
2017-10-31T11:15:20.613Z,54.67
2017-10-31T11:17:46.803Z,54.72
2017-10-31T11:20:13.268Z,54.72
2017-10-31T11:22:40.133Z,54.76
2017-10-31T11:25:06.347Z,54.76
2017-10-31T11:27:32.539Z,54.77
2017-10-31T11:29:59.116Z,54.85
2017-10-31T11:32:25.637Z,54.87
2017-10-31T11:34:51.931Z,54.94
2017-10-31T11:37:18.746Z,54.99
2017-10-31T11:39:44.964Z,55.03
2017-10-31T11:42:11.166Z,55.09
2017-10-31T11:44:37.443Z,55.13
2017-10-31T11:47:03.874Z,55.17
2017-10-31T11:49:30.123Z,55.12
2017-10-31T11:51:57.040Z,55.18
2017-10-31T11:54:23.298Z,55.22
2017-10-31T11:56:49.592Z,55.21
2017-10-31T11:59:16.203Z,55.18
2017-10-31T12:01:42.450Z,55.14
2017-10-31T12:04:08.727Z,55.15
2017-10-31T12:06:35.059Z,55.14
2017-10-31T12:09:01.300Z,55.12
2017-10-31T12:11:27.590Z,55.08
2017-10-31T12:13:54.697Z,55.06
2017-10-31T12:16:20.975Z,55.03
2017-10-31T12:18:47.288Z,55.07
2017-10-31T12:21:13.608Z,55.08
2017-10-31T12:23:40.170Z,55.12
2017-10-31T12:26:06.440Z,55.12
2017-10-31T12:28:32.747Z,55.08
2017-10-31T12:30:59.011Z,55.15
2017-10-31T12:33:25.298Z,55.15
2017-10-31T12:35:51.809Z,55.16
2017-10-31T12:38:18.362Z,55.15
2017-10-31T12:40:44.610Z,55.14
2017-10-31T12:43:11.630Z,55.08
2017-10-31T12:45:38.127Z,55.06
2017-10-31T12:48:04.677Z,55.03
2017-10-31T12:50:31.035Z,55.02
2017-10-31T12:52:57.292Z,55.03
2017-10-31T12:55:23.542Z,55.06
2017-10-31T12:57:50.297Z,55.07
2017-10-31T13:00:16.553Z,55.13
2017-10-31T13:02:42.823Z,55.09
2017-10-31T13:05:09.526Z,55.11
2017-10-31T13:07:35.835Z,55.15
2017-10-31T13:10:02.091Z,55.17
2017-10-31T13:12:29.132Z,55.21
2017-10-31T13:14:55.384Z,55.17
2017-10-31T13:17:21.605Z,55.15
2017-10-31T13:19:48.285Z,55.11
2017-10-31T13:22:14.875Z,55.12
2017-10-31T13:24:41.121Z,55.20
2017-10-31T13:27:08.420Z,55.23
2017-10-31T13:29:35.282Z,55.23
2017-10-31T13:32:02.162Z,55.15
2017-10-31T13:34:29.716Z,55.13
2017-10-31T13:36:56.620Z,55.13
2017-10-31T13:39:25.240Z,55.15
2017-10-31T13:41:52.857Z,55.16
2017-10-31T13:44:19.778Z,55.11
2017-10-31T13:46:46.651Z,55.09
2017-10-31T13:49:13.935Z,55.05
2017-10-31T13:51:41.082Z,54.97
2017-10-31T13:54:07.365Z,55.02
2017-10-31T13:56:33.676Z,55.04
2017-10-31T13:58:59.970Z,55.06
2017-10-31T14:01:26.607Z,55.08
2017-10-31T14:03:53.811Z,55.10
2017-10-31T14:06:20.799Z,55.06
2017-10-31T14:08:47.638Z,55.10
2017-10-31T14:11:14.612Z,55.04
2017-10-31T14:13:41.125Z,54.95
2017-10-31T14:16:07.404Z,54.99
2017-10-31T14:18:34.483Z,55.03
2017-10-31T14:21:01.342Z,55.05
2017-10-31T14:23:27.855Z,55.05
2017-10-31T14:25:54.590Z,55.11
2017-10-31T14:28:20.858Z,55.10
2017-10-31T14:30:47.111Z,55.14
2017-10-31T14:33:13.468Z,55.15
2017-10-31T14:35:39.792Z,55.11
2017-10-31T14:38:06.052Z,55.14
2017-10-31T14:40:32.666Z,55.13
2017-10-31T14:42:58.916Z,55.14
2017-10-31T14:45:25.432Z,55.15
2017-10-31T14:47:51.729Z,55.11
2017-10-31T14:50:17.967Z,55.12
2017-10-31T14:52:44.562Z,55.11
2017-10-31T14:55:11.192Z,55.13
2017-10-31T14:57:37.467Z,55.11
2017-10-31T15:00:03.850Z,55.15
2017-10-31T15:02:30.387Z,55.17
2017-10-31T15:04:56.640Z,55.18
2017-10-31T15:07:22.941Z,55.17
2017-10-31T15:09:49.645Z,55.19
2017-10-31T15:12:15.923Z,55.22
2017-10-31T15:14:42.171Z,55.27
2017-10-31T15:17:08.587Z,55.30
2017-10-31T15:19:34.833Z,55.30
2017-10-31T15:22:01.113Z,55.30
2017-10-31T15:24:27.543Z,55.34
2017-10-31T15:26:53.775Z,55.38
2017-10-31T15:29:20.046Z,55.37
2017-10-31T15:31:46.613Z,55.38
2017-10-31T15:34:13.148Z,55.42
2017-10-31T15:36:39.451Z,55.40
2017-10-31T15:39:05.779Z,55.44
2017-10-31T15:41:32.045Z,55.48
2017-10-31T15:43:58.308Z,55.49
2017-10-31T15:46:24.725Z,55.42
2017-10-31T15:48:51.002Z,55.46
2017-10-31T15:51:17.220Z,55.43
2017-10-31T15:53:44.149Z,55.43
2017-10-31T15:56:10.692Z,55.43
2017-10-31T15:58:37.010Z,55.43
2017-10-31T16:01:03.310Z,55.43
2017-10-31T16:03:29.729Z,55.44
2017-10-31T16:05:56.019Z,55.48
2017-10-31T16:08:22.253Z,55.52
2017-10-31T16:10:48.630Z,55.48
2017-10-31T16:13:14.973Z,55.57
2017-10-31T16:15:41.242Z,55.57
2017-10-31T16:18:07.930Z,55.54
2017-10-31T16:20:34.181Z,55.52
2017-10-31T16:23:00.730Z,55.54
2017-10-31T16:25:27.380Z,55.54
2017-10-31T16:27:53.663Z,55.59
2017-10-31T16:30:19.937Z,55.56
2017-10-31T16:32:46.326Z,55.59
2017-10-31T16:35:12.604Z,55.53
2017-10-31T16:37:39.044Z,55.55
2017-10-31T16:40:05.732Z,55.56
2017-10-31T16:42:32.107Z,55.60
2017-10-31T16:44:58.394Z,55.57
2017-10-31T16:47:24.760Z,55.57
2017-10-31T16:49:51.078Z,55.59
2017-10-31T16:52:17.397Z,55.55
2017-10-31T16:54:44.019Z,55.56
2017-10-31T16:57:10.349Z,55.55
2017-10-31T16:59:36.650Z,55.50
2017-10-31T17:02:03.315Z,55.49
2017-10-31T17:04:29.581Z,55.53
2017-10-31T17:06:55.851Z,55.46
2017-10-31T17:09:22.191Z,55.52
2017-10-31T17:11:48.396Z,55.54
2017-10-31T17:14:14.664Z,55.54
2017-10-31T17:16:41.292Z,55.57
2017-10-31T17:19:07.491Z,55.55
2017-10-31T17:21:33.694Z,55.54
2017-10-31T17:23:59.949Z,55.56
2017-10-31T17:26:26.389Z,55.57
2017-10-31T17:28:52.606Z,55.60
2017-10-31T17:31:18.933Z,55.61
2017-10-31T17:33:45.150Z,55.55
2017-10-31T17:36:11.345Z,55.57
2017-10-31T17:38:37.809Z,55.56
2017-10-31T17:41:04.023Z,55.55
2017-10-31T17:43:30.274Z,55.59
2017-10-31T17:45:56.762Z,55.63
2017-10-31T17:48:22.975Z,55.59
2017-10-31T17:50:49.207Z,55.57
2017-10-31T17:53:15.798Z,55.58
2017-10-31T17:55:42.013Z,55.56
2017-10-31T17:58:08.211Z,55.57
2017-10-31T18:00:34.963Z,55.54
2017-10-31T18:03:01.178Z,55.57
2017-10-31T18:05:27.624Z,55.62
2017-10-31T18:07:53.962Z,55.66
2017-10-31T18:10:20.154Z,55.66
2017-10-31T18:12:46.350Z,55.64
2017-10-31T18:15:13.011Z,55.62
2017-10-31T18:17:39.456Z,55.62
2017-10-31T18:20:05.645Z,55.61
2017-10-31T18:22:31.906Z,55.63
2017-10-31T18:24:58.359Z,55.69
2017-10-31T18:27:24.600Z,55.72
2017-10-31T18:29:51.158Z,55.73
2017-10-31T18:32:17.601Z,55.73
2017-10-31T18:34:44.059Z,55.73
2017-10-31T18:37:10.800Z,55.71
2017-10-31T18:39:37.243Z,55.71
2017-10-31T18:42:03.527Z,55.70
2017-10-31T18:44:29.850Z,55.76
2017-10-31T18:46:56.079Z,55.77
2017-10-31T18:49:22.490Z,55.78
2017-10-31T18:51:48.788Z,55.75
2017-10-31T18:54:15.073Z,55.75
2017-10-31T18:56:41.496Z,55.82
2017-10-31T18:59:07.760Z,55.77
2017-10-31T19:01:33.994Z,55.76
2017-10-31T19:04:00.258Z,55.77
2017-10-31T19:06:26.543Z,55.82
2017-10-31T19:08:53.041Z,55.84
2017-10-31T19:11:19.340Z,55.87
2017-10-31T19:13:45.971Z,55.88
2017-10-31T19:16:12.239Z,55.87
2017-10-31T19:18:38.492Z,55.85
2017-10-31T19:21:04.815Z,55.88
2017-10-31T19:23:31.150Z,55.90
2017-10-31T19:25:57.422Z,55.92
2017-10-31T19:28:25.298Z,55.87
2017-10-31T19:30:51.577Z,55.89
2017-10-31T19:33:17.874Z,55.91
2017-10-31T19:35:44.160Z,55.92
2017-10-31T19:38:10.867Z,56.21
2017-10-31T19:40:37.157Z,56.54
2017-10-31T19:43:03.501Z,56.81
2017-10-31T19:45:29.765Z,57.21
2017-10-31T19:47:56.038Z,57.45
2017-10-31T19:50:22.609Z,57.56
2017-10-31T19:52:48.884Z,57.66
2017-10-31T19:55:15.157Z,57.64
2017-10-31T19:57:41.641Z,57.66
2017-10-31T20:00:08.174Z,57.72
2017-10-31T20:02:34.424Z,57.76
2017-10-31T20:05:00.761Z,57.94
2017-10-31T20:07:26.992Z,57.97
2017-10-31T20:09:53.268Z,57.96
2017-10-31T20:12:19.747Z,57.83
2017-10-31T20:14:46.275Z,58.03
2017-10-31T20:17:12.537Z,58.06
2017-10-31T20:19:38.861Z,58.13
2017-10-31T20:22:05.183Z,58.13
2017-10-31T20:24:31.472Z,58.03
2017-10-31T20:26:58.006Z,57.94
2017-10-31T20:29:24.250Z,58.17
2017-10-31T20:31:50.848Z,58.22
2017-10-31T20:34:17.354Z,58.28
2017-10-31T20:36:43.621Z,58.17
2017-10-31T20:39:10.010Z,58.16
2017-10-31T20:41:36.418Z,58.09
2017-10-31T20:44:02.687Z,58.10
2017-10-31T20:46:28.959Z,58.10
2017-10-31T20:48:55.290Z,58.13
2017-10-31T20:51:21.528Z,58.15
2017-10-31T20:53:47.784Z,58.22
2017-10-31T20:56:14.113Z,58.20
2017-10-31T20:58:40.383Z,58.13
2017-10-31T21:01:06.613Z,58.21
2017-10-31T21:03:33.281Z,58.20
2017-10-31T21:05:59.560Z,58.15
2017-10-31T21:08:25.816Z,58.18
2017-10-31T21:10:52.460Z,58.29
2017-10-31T21:13:18.731Z,58.26
2017-10-31T21:15:45.009Z,58.18
2017-10-31T21:18:11.775Z,58.24
2017-10-31T21:20:38.071Z,58.31
2017-10-31T21:23:04.299Z,58.38
2017-10-31T21:25:30.626Z,58.44
2017-10-31T21:27:56.853Z,58.56
2017-10-31T21:30:23.125Z,58.57
2017-10-31T21:32:49.515Z,58.64
2017-10-31T21:35:15.779Z,58.70
2017-10-31T21:37:42.062Z,58.66
2017-10-31T21:40:08.405Z,58.64
2017-10-31T21:42:34.696Z,58.77
2017-10-31T21:45:01.063Z,58.81
2017-10-31T21:47:27.500Z,58.86
2017-10-31T21:49:53.760Z,58.70
2017-10-31T21:52:20.035Z,58.79
2017-10-31T21:54:46.382Z,58.91
2017-10-31T21:57:18.596Z,58.87
2017-10-31T21:59:44.976Z,58.95
2017-10-31T22:02:11.248Z,58.98
2017-10-31T22:04:37.500Z,58.99
2017-10-31T22:07:03.798Z,59.00
2017-10-31T22:09:30.157Z,59.13
2017-10-31T22:11:56.518Z,59.22
2017-10-31T22:14:22.824Z,59.16
2017-10-31T22:16:49.129Z,59.22
2017-10-31T22:19:15.539Z,59.22
2017-10-31T22:21:42.035Z,59.15
2017-10-31T22:24:08.306Z,59.14
2017-10-31T22:26:34.695Z,58.96
2017-10-31T22:29:01.199Z,59.04
2017-10-31T22:31:27.534Z,59.21
2017-10-31T22:33:54.131Z,58.64
2017-10-31T22:36:20.375Z,58.38
2017-10-31T22:38:47.071Z,58.66
2017-10-31T22:41:13.469Z,58.82
2017-10-31T22:43:39.774Z,58.91
2017-10-31T22:46:06.702Z,58.85
2017-10-31T22:48:32.984Z,58.77
2017-10-31T22:50:59.189Z,58.69
2017-10-31T22:53:25.519Z,58.68
2017-10-31T22:55:51.771Z,58.62
2017-10-31T22:58:18.104Z,58.64
2017-10-31T23:00:44.551Z,58.63
2017-10-31T23:03:10.747Z,58.69
2017-10-31T23:05:36.931Z,58.69
2017-10-31T23:08:03.766Z,58.69
2017-10-31T23:10:29.972Z,58.65
2017-10-31T23:12:56.388Z,58.72
2017-10-31T23:15:23.239Z,58.73
2017-10-31T23:17:49.455Z,58.71
2017-10-31T23:20:15.904Z,58.72
2017-10-31T23:22:42.242Z,58.62
2017-10-31T23:25:08.460Z,58.70
2017-10-31T23:27:34.661Z,58.75
2017-10-31T23:30:01.222Z,58.94
2017-10-31T23:32:27.411Z,59.02
2017-10-31T23:34:53.636Z,58.89
2017-10-31T23:37:19.857Z,58.86
2017-10-31T23:39:46.059Z,58.84
2017-10-31T23:42:12.382Z,58.96
2017-10-31T23:44:38.759Z,58.71
2017-10-31T23:47:05.390Z,58.71
2017-10-31T23:49:31.820Z,58.71
2017-10-31T23:51:58.262Z,58.92
2017-10-31T23:54:24.728Z,58.89
2017-10-31T23:56:51.532Z,58.95
2017-10-31T23:59:17.839Z,58.85
